Time,TemperatureF,DewpointF,PressureIn,WindDirection,WindDirectionDegrees,WindSpeedMPH,WindSpeedGustMPH,Humidity,HourlyPrecipIn,Conditions,Clouds,dailyrainin,SoftwareType,DateUTC
2013-11-01 00:05:00,42.9,38.7,29.41,West,269,5.7,9.0,80,0.00,NA,NA,0.77,meteo_script,2013-11-01 05:05:00,
2013-11-01 00:35:00,42.8,38.6,29.41,West,264,8.4,15.0,80,0.00,NA,NA,0.00,meteo_script,2013-11-01 05:35:00,
2013-11-01 01:05:00,42.7,38.5,29.42,WSW,257,7.6,12.0,80,0.00,NA,NA,0.00,meteo_script,2013-11-01 06:05:00,
2013-11-01 01:35:00,42.7,38.7,29.43,WSW,254,6.8,9.0,81,0.00,NA,NA,0.00,meteo_script,2013-11-01 06:35:00,
2013-11-01 02:05:00,42.4,38.4,29.44,WSW,252,6.8,13.0,81,0.00,NA,NA,0.00,meteo_script,2013-11-01 07:05:00,
2013-11-01 02:35:00,41.8,38.0,29.44,West,264,7.7,14.0,81,0.00,NA,NA,0.00,meteo_script,2013-11-01 07:35:00,
2013-11-01 03:05:00,41.7,37.7,29.44,West,261,7.1,10.0,81,0.00,NA,NA,0.00,meteo_script,2013-11-01 08:05:00,
2013-11-01 03:35:00,41.4,37.5,29.45,West,261,6.0,10.0,81,0.00,NA,NA,0.00,meteo_script,2013-11-01 08:35:00,
2013-11-01 04:05:00,41.3,37.3,29.47,WSW,256,4.5,8.0,80,0.00,NA,NA,0.00,meteo_script,2013-11-01 09:05:00,
2013-11-01 04:35:00,41.2,37.2,29.46,West,263,7.1,13.0,80,0.00,NA,NA,0.00,meteo_script,2013-11-01 09:35:00,
2013-11-01 05:05:00,41.1,36.9,29.47,West,276,2.7,5.0,80,0.00,NA,NA,0.00,meteo_script,2013-11-01 10:05:00,
2013-11-01 05:35:00,41.2,37.0,29.48,West,267,4.2,11.0,80,0.00,NA,NA,0.00,meteo_script,2013-11-01 10:35:00,
2013-11-01 06:05:00,41.1,36.9,29.49,West,262,9.2,13.0,80,0.00,NA,NA,0.00,meteo_script,2013-11-01 11:05:00,
2013-11-01 06:35:00,41.2,37.0,29.51,West,262,3.3,6.0,79,0.00,NA,NA,0.00,meteo_script,2013-11-01 11:35:00,
2013-11-01 07:05:00,41.2,37.0,29.52,West,259,7.7,12.0,80,0.00,NA,NA,0.00,meteo_script,2013-11-01 12:05:00,
2013-11-01 07:35:00,41.3,37.1,29.53,WNW,283,4.5,8.0,80,0.00,NA,NA,0.00,meteo_script,2013-11-01 12:35:00,
2013-11-01 08:05:00,41.3,37.1,29.54,West,271,4.8,9.0,80,0.00,NA,NA,0.00,meteo_script,2013-11-01 13:05:00,
2013-11-01 08:35:00,41.5,37.3,29.56,WSW,256,3.5,7.0,80,0.00,NA,NA,0.00,meteo_script,2013-11-01 13:35:00,
2013-11-01 09:05:00,41.7,37.5,29.57,WSW,257,4.3,8.0,80,0.00,NA,NA,0.00,meteo_script,2013-11-01 14:05:00,
2013-11-01 09:35:00,41.9,37.8,29.58,West,260,5.4,10.0,80,0.00,NA,NA,0.00,meteo_script,2013-11-01 14:35:00,
2013-11-01 10:05:00,42.3,38.3,29.59,WSW,255,7.9,14.0,81,0.00,NA,NA,0.00,meteo_script,2013-11-01 15:05:00,
2013-11-01 10:35:00,43.0,39.0,29.59,West,273,5.6,8.0,81,0.00,NA,NA,0.00,meteo_script,2013-11-01 15:35:00,
2013-11-01 11:05:00,44.3,39.8,29.59,West,276,4.8,8.0,79,0.00,NA,NA,0.00,meteo_script,2013-11-01 16:05:00,
2013-11-01 11:35:00,44.4,39.7,29.60,WSW,254,1.0,5.0,78,0.00,NA,NA,0.00,meteo_script,2013-11-01 16:35:00,
2013-11-01 12:05:00,45.0,40.3,29.62,WSW,253,3.7,8.0,78,0.00,NA,NA,0.00,meteo_script,2013-11-01 17:05:00,
2013-11-01 12:35:00,45.7,40.5,29.62,West,260,2.1,5.0,76,0.00,NA,NA,0.00,meteo_script,2013-11-01 17:35:00,
2013-11-01 13:05:00,45.8,40.5,29.64,West,262,7.0,10.0,76,0.00,NA,NA,0.00,meteo_script,2013-11-01 18:05:00,
2013-11-01 13:35:00,46.0,40.5,29.63,West,264,5.6,10.0,75,0.00,NA,NA,0.00,meteo_script,2013-11-01 18:35:00,
2013-11-01 14:05:00,46.5,40.8,29.63,West,270,3.0,10.0,74,0.00,NA,NA,0.00,meteo_script,2013-11-01 19:05:00,
2013-11-01 14:35:00,47.1,41.5,29.64,West,278,1.4,4.0,75,0.00,NA,NA,0.00,meteo_script,2013-11-01 19:35:00,
2013-11-01 15:05:00,47.0,41.9,29.66,West,269,1.6,4.0,77,0.00,NA,NA,0.00,meteo_script,2013-11-01 20:05:00,
2013-11-01 15:35:00,47.5,42.2,29.67,West,266,3.3,7.0,76,0.00,NA,NA,0.00,meteo_script,2013-11-01 20:35:00,
2013-11-01 16:05:00,47.4,42.3,29.67,West,270,3.8,7.0,77,0.00,NA,NA,0.00,meteo_script,2013-11-01 21:05:00,
2013-11-01 16:35:00,46.4,41.6,29.69,WNW,286,0.8,4.0,78,0.02,NA,NA,0.01,meteo_script,2013-11-01 21:35:00,
2013-11-01 17:05:00,46.6,41.5,29.69,West,272,2.3,6.0,77,0.00,NA,NA,0.01,meteo_script,2013-11-01 22:05:00,
2013-11-01 17:35:00,46.3,41.3,29.70,West,274,0.1,1.0,77,0.00,NA,NA,0.01,meteo_script,2013-11-01 22:35:00,
2013-11-01 18:05:00,46.3,41.4,29.71,West,273,0.4,2.0,77,0.00,NA,NA,0.01,meteo_script,2013-11-01 23:05:00,
2013-11-01 18:35:00,45.9,41.2,29.72,West,271,1.7,5.0,78,0.00,NA,NA,0.01,meteo_script,2013-11-01 23:35:00,
2013-11-01 19:05:00,45.6,41.1,29.72,West,269,2.0,3.0,79,0.00,NA,NA,0.01,meteo_script,2013-11-02 00:05:00,
2013-11-01 19:35:00,45.3,41.0,29.74,West,268,0.3,1.0,80,0.00,NA,NA,0.01,meteo_script,2013-11-02 00:35:00,
2013-11-01 20:05:00,45.4,41.2,29.75,West,268,0.0,1.0,80,0.00,NA,NA,0.01,meteo_script,2013-11-02 01:05:00,
2013-11-01 20:35:00,44.8,40.6,29.76,West,268,0.6,2.0,80,0.00,NA,NA,0.01,meteo_script,2013-11-02 01:35:00,
2013-11-01 21:05:00,44.0,40.0,29.75,North,0,0.0,0.0,81,0.00,NA,NA,0.01,meteo_script,2013-11-02 02:05:00,
2013-11-01 21:35:00,43.7,39.3,29.76,West,271,0.9,3.0,79,0.00,NA,NA,0.01,meteo_script,2013-11-02 02:35:00,
2013-11-01 22:05:00,43.1,38.6,29.76,North,0,0.5,2.0,78,0.00,NA,NA,0.01,meteo_script,2013-11-02 03:05:00,
2013-11-01 22:35:00,42.4,37.5,29.77,North,0,0.5,2.0,77,0.00,NA,NA,0.01,meteo_script,2013-11-02 03:35:00,
2013-11-01 23:05:00,41.7,36.8,29.78,North,0,0.1,1.0,77,0.00,NA,NA,0.01,meteo_script,2013-11-02 04:05:00,
2013-11-01 23:35:00,41.0,36.4,29.79,North,0,0.0,0.0,78,0.00,NA,NA,0.01,meteo_script,2013-11-02 04:35:00,